Time;durP1;ratioP1;P1;durP2;ratioP2;P2;SDS_P1;SDS_P2;PMS_P1;PMS_P2;Temp;Humidity;BMP_temperature;BMP_pressure;BME280_temperature;BME280_humidity;BME280_pressure;Samples;Min_cycle;Max_cycle;Signal;HPM_P1;HPM_P2
2023/10/28 00:00:50;;;;;;;37.15;22.08;;;;;;;-148.88;100.00;-17125.47;4993691;28;20049;-86
2023/10/28 00:03:21;;;;;;;40.58;24.38;;;;;;;-148.88;100.00;-17125.47;4994653;28;20034;-86
2023/10/28 00:05:47;;;;;;;46.00;27.73;;;;;;;-148.88;100.00;-17125.47;5010467;28;20018;-87
2023/10/28 00:08:23;;;;;;;41.65;27.15;;;;;;;-148.88;100.00;-17125.47;4993772;28;20088;-86
2023/10/28 00:10:48;;;;;;;49.45;28.48;;;;;;;-148.88;100.00;-17125.47;4994164;28;20471;-86
2023/10/28 00:13:17;;;;;;;44.33;27.90;;;;;;;-148.88;100.00;-17125.47;5009984;28;20100;-86
2023/10/28 00:15:48;;;;;;;43.70;26.08;;;;;;;-148.88;100.00;-17125.47;4992423;28;20401;-87
2023/10/28 00:18:16;;;;;;;38.03;25.63;;;;;;;-148.88;100.00;-17125.47;4994299;28;20026;-88
2023/10/28 00:20:44;;;;;;;38.42;25.30;;;;;;;-148.88;100.00;-17125.47;4992684;28;20520;-87
2023/10/28 00:23:14;;;;;;;39.88;26.85;;;;;;;-148.88;100.00;-17125.47;5008621;28;20046;-86
2023/10/28 00:25:41;;;;;;;40.33;25.60;;;;;;;-148.88;100.00;-17125.47;5008995;28;20045;-87
2023/10/28 00:28:15;;;;;;;39.65;25.52;;;;;;;-148.88;100.00;-17125.47;5009576;28;20042;-86
2023/10/28 00:30:54;;;;;;;39.10;25.73;;;;;;;-148.88;100.00;-17125.47;4992842;28;20026;-85
2023/10/28 00:33:26;;;;;;;44.08;26.58;;;;;;;-148.88;100.00;-17125.47;4994203;28;20034;-86
2023/10/28 00:35:51;;;;;;;45.30;27.20;;;;;;;-148.88;100.00;-17125.47;5009672;28;20026;-86
2023/10/28 00:38:17;;;;;;;39.90;25.38;;;;;;;-148.88;100.00;-17125.47;5008825;28;20093;-86
2023/10/28 00:40:47;;;;;;;39.35;25.88;;;;;;;-148.88;100.00;-17125.47;4993119;28;20027;-85
2023/10/28 00:43:27;;;;;;;43.58;27.88;;;;;;;-148.88;100.00;-17125.47;4993824;28;20555;-86
2023/10/28 00:45:56;;;;;;;43.28;27.15;;;;;;;-148.88;100.00;-17125.47;5009291;28;20023;-85
2023/10/28 00:48:23;;;;;;;41.95;25.52;;;;;;;-148.88;100.00;-17125.47;5009201;28;20061;-86
2023/10/28 00:50:54;;;;;;;45.17;26.20;;;;;;;-148.88;100.00;-17125.47;4993130;28;20125;-85
2023/10/28 00:53:34;;;;;;;39.42;25.73;;;;;;;-148.88;100.00;-17125.47;4992311;28;20464;-86
2023/10/28 00:56:03;;;;;;;43.40;24.13;;;;;;;-148.88;100.00;-17125.47;5009501;28;20092;-86
2023/10/28 00:58:30;;;;;;;40.33;25.02;;;;;;;-148.88;100.00;-17125.47;5008865;28;20381;-86
2023/10/28 01:00:56;;;;;;;35.08;22.83;;;;;;;-148.88;100.00;-17125.47;5009542;28;20030;-87
2023/10/28 01:03:21;;;;;;;37.15;24.05;;;;;;;-148.88;100.00;-17125.47;4992242;28;20051;-85
2023/10/28 01:05:50;;;;;;;38.58;23.23;;;;;;;-148.88;100.00;-17125.47;4992519;28;20026;-86
2023/10/28 01:08:26;;;;;;;34.40;20.40;;;;;;;-148.88;100.00;-17125.47;4992360;28;20026;-86
2023/10/28 01:10:59;;;;;;;35.60;21.60;;;;;;;-148.88;100.00;-17125.47;5009350;28;20037;-85
2023/10/28 01:13:34;;;;;;;33.00;20.38;;;;;;;-148.88;100.00;-17125.47;5009595;28;20054;-86
2023/10/28 01:16:00;;;;;;;30.92;19.33;;;;;;;-148.88;100.00;-17125.47;4993763;28;20113;-86
2023/10/28 01:18:33;;;;;;;30.02;19.58;;;;;;;-148.88;100.00;-17125.47;5010851;28;20492;-87
2023/10/28 01:21:08;;;;;;;32.25;19.08;;;;;;;-148.88;100.00;-17125.47;4994799;28;20120;-87
2023/10/28 01:23:34;;;;;;;30.48;18.05;;;;;;;-148.88;100.00;-17125.47;4994088;28;20118;-85
2023/10/28 01:26:14;;;;;;;30.65;18.20;;;;;;;-148.88;100.00;-17125.47;5008867;28;20046;-86
2023/10/28 01:28:40;;;;;;;31.40;17.38;;;;;;;-148.88;100.00;-17125.47;5009314;28;20026;-85
2023/10/28 01:31:08;;;;;;;31.35;17.98;;;;;;;-148.88;100.00;-17125.47;4992298;28;20057;-87
2023/10/28 01:33:36;;;;;;;31.65;17.30;;;;;;;-148.88;100.00;-17125.47;4992976;28;20023;-86
2023/10/28 01:36:02;;;;;;;28.15;16.80;;;;;;;-148.88;100.00;-17125.47;5008250;28;20026;-86
2023/10/28 01:38:27;;;;;;;27.45;17.02;;;;;;;-148.88;100.00;-17125.47;4993329;28;20072;-85
2023/10/28 01:40:58;;;;;;;28.25;16.13;;;;;;;-148.88;100.00;-17125.47;4991745;28;20424;-86
2023/10/28 01:43:23;;;;;;;27.83;16.42;;;;;;;-148.88;100.00;-17125.47;5008699;28;20026;-86
2023/10/28 01:45:49;;;;;;;23.90;15.48;;;;;;;-148.88;100.00;-17125.47;4992507;28;20030;-86
2023/10/28 01:48:14;;;;;;;27.00;15.60;;;;;;;-148.88;100.00;-17125.47;4992927;28;20025;-87
2023/10/28 01:50:43;;;;;;;28.27;16.42;;;;;;;-148.88;100.00;-17125.47;5009002;28;20050;-85
2023/10/28 01:53:09;;;;;;;25.95;15.48;;;;;;;-148.88;100.00;-17125.47;4993742;28;20119;-87
2023/10/28 01:55:34;;;;;;;26.65;16.38;;;;;;;-148.88;100.00;-17125.47;4996033;28;20366;-85
2023/10/28 01:58:00;;;;;;;25.95;16.50;;;;;;;-148.88;100.00;-17125.47;4996433;28;20026;-86
2023/10/28 02:00:30;;;;;;;28.98;17.95;;;;;;;-148.88;100.00;-17125.47;4995965;28;20026;-85
2023/10/28 02:03:00;;;;;;;23.90;17.17;;;;;;;-148.88;100.00;-17125.47;5012262;28;20030;-87
2023/10/28 02:05:32;;;;;;;19.95;8.48;;;;;;;-148.88;100.00;-17125.47;4995390;28;20061;-87
2023/10/28 02:08:17;;;;;;;27.67;17.52;;;;;;;-148.88;100.00;-17125.47;4995057;28;20049;-87
2023/10/28 02:10:45;;;;;;;26.23;16.90;;;;;;;-148.88;100.00;-17125.47;4995636;28;20034;-86
2023/10/28 02:13:12;;;;;;;31.00;17.60;;;;;;;-148.88;100.00;-17125.47;4995072;28;20026;-87
2023/10/28 02:15:43;;;;;;;22.25;15.90;;;;;;;-148.88;100.00;-17125.47;4994985;28;20026;-85
2023/10/28 02:18:11;;;;;;;25.40;17.50;;;;;;;-148.88;100.00;-17125.47;5012237;28;20045;-87
2023/10/28 02:20:45;;;;;;;24.38;16.58;;;;;;;-148.88;100.00;-17125.47;4995383;28;20018;-87
2023/10/28 02:23:13;;;;;;;24.52;16.08;;;;;;;-148.88;100.00;-17125.47;4994583;28;20056;-87
2023/10/28 02:25:43;;;;;;;21.42;15.25;;;;;;;-148.88;100.00;-17125.47;4994910;28;20026;-86
2023/10/28 02:28:12;;;;;;;23.48;14.43;;;;;;;-148.88;100.00;-17125.47;4996612;28;20065;-87
2023/10/28 02:30:43;;;;;;;19.55;13.48;;;;;;;-148.88;100.00;-17125.47;5011687;28;20029;-86
2023/10/28 02:33:20;;;;;;;23.65;14.45;;;;;;;-148.88;100.00;-17125.47;5011874;28;20507;-86
2023/10/28 02:35:47;;;;;;;23.20;13.05;;;;;;;-148.88;100.00;-17125.47;4996372;28;20405;-85
2023/10/28 02:38:12;;;;;;;22.58;12.35;;;;;;;-148.88;100.00;-17125.47;4995093;28;20030;-86
2023/10/28 02:40:44;;;;;;;21.38;12.65;;;;;;;-148.88;100.00;-17125.47;5011585;28;20163;-86
2023/10/28 02:43:15;;;;;;;17.75;11.60;;;;;;;-148.88;100.00;-17125.47;5012132;28;20030;-86
2023/10/28 02:45:41;;;;;;;18.65;10.88;;;;;;;-148.88;100.00;-17125.47;5010830;28;20068;-86
2023/10/28 02:48:06;;;;;;;16.13;10.05;;;;;;;-148.88;100.00;-17125.47;4995821;28;20030;-87
2023/10/28 02:50:37;;;;;;;20.13;10.63;;;;;;;-148.88;100.00;-17125.47;5011322;28;20113;-86
2023/10/28 02:53:03;;;;;;;15.88;9.10;;;;;;;-148.88;100.00;-17125.47;4995190;28;20056;-87
2023/10/28 02:55:35;;;;;;;17.95;9.90;;;;;;;-148.88;100.00;-17125.47;4994457;28;20030;-85
2023/10/28 02:58:18;;;;;;;17.77;9.23;;;;;;;-148.88;100.00;-17125.47;4993930;28;20392;-86
2023/10/28 03:00:43;;;;;;;10.45;4.35;;;;;;;-148.88;100.00;-17125.47;4995445;28;20354;-87
2023/10/28 03:03:09;;;;;;;17.13;10.07;;;;;;;-148.88;100.00;-17125.47;4994431;28;20566;-86
2023/10/28 03:05:39;;;;;;;18.77;9.90;;;;;;;-148.88;100.00;-17125.47;4994420;28;20076;-84
2023/10/28 03:08:08;;;;;;;20.63;9.60;;;;;;;-148.88;100.00;-17125.47;4996977;28;20109;-87
2023/10/28 03:10:33;;;;;;;16.45;9.98;;;;;;;-148.88;100.00;-17125.47;4994702;28;20128;-86
2023/10/28 03:13:01;;;;;;;15.15;9.77;;;;;;;-148.88;100.00;-17125.47;4995632;28;20473;-86
2023/10/28 03:15:31;;;;;;;22.05;9.40;;;;;;;-148.88;100.00;-17125.47;4994882;28;20026;-87
2023/10/28 03:18:20;;;;;;;17.65;8.68;;;;;;;-148.88;100.00;-17125.47;4993794;28;20034;-87
2023/10/28 03:20:46;;;;;;;15.25;8.50;;;;;;;-148.88;100.00;-17125.47;4994061;28;20547;-86
2023/10/28 03:23:11;;;;;;;11.02;3.83;;;;;;;-148.88;100.00;-17125.47;4993842;28;20038;-86
2023/10/28 03:25:37;;;;;;;16.40;8.23;;;;;;;-148.88;100.00;-17125.47;4994705;28;20073;-85
2023/10/28 03:28:12;;;;;;;17.95;8.57;;;;;;;-148.88;100.00;-17125.47;4993571;28;20029;-86
2023/10/28 03:30:38;;;;;;;16.58;9.20;;;;;;;-148.88;100.00;-17125.47;4993207;28;20532;-86
2023/10/28 03:33:10;;;;;;;9.52;3.92;;;;;;;-148.88;100.00;-17125.47;4993422;28;20069;-86
2023/10/28 03:35:35;;;;;;;17.38;9.75;;;;;;;-148.88;100.00;-17125.47;4994138;28;20077;-85
2023/10/28 03:38:06;;;;;;;17.60;9.07;;;;;;;-148.88;100.00;-17125.47;4994333;28;20022;-85
2023/10/28 03:40:38;;;;;;;14.68;8.30;;;;;;;-148.88;100.00;-17125.47;4994322;28;20444;-86
2023/10/28 03:43:09;;;;;;;14.57;8.57;;;;;;;-148.88;100.00;-17125.47;4994185;28;20029;-86
2023/10/28 03:45:37;;;;;;;16.27;8.02;;;;;;;-148.88;100.00;-17125.47;4995456;28;20026;-87
2023/10/28 03:48:06;;;;;;;14.10;8.27;;;;;;;-148.88;100.00;-17125.47;4994818;28;20034;-85
2023/10/28 03:50:37;;;;;;;16.25;7.38;;;;;;;-148.88;100.00;-17125.47;4993684;28;20054;-85
2023/10/28 03:53:02;;;;;;;15.38;7.97;;;;;;;-148.88;100.00;-17125.47;4994003;28;20030;-86
2023/10/28 03:55:28;;;;;;;16.70;7.38;;;;;;;-148.88;100.00;-17125.47;4993158;28;20069;-85
2023/10/28 03:57:56;;;;;;;13.30;7.47;;;;;;;-148.88;100.00;-17125.47;4994744;28;20022;-85
2023/10/28 04:00:22;;;;;;;13.40;7.38;;;;;;;-148.88;100.00;-17125.47;4993181;28;20497;-85
2023/10/28 04:02:47;;;;;;;17.75;7.97;;;;;;;-148.88;100.00;-17125.47;4993360;28;20033;-86
2023/10/28 04:05:13;;;;;;;16.75;7.63;;;;;;;-148.88;100.00;-17125.47;4993090;28;20405;-86
2023/10/28 04:08:29;;;;;;;14.57;7.53;;;;;;;-148.88;100.00;-17125.47;4994561;28;20470;-86
2023/10/28 04:11:04;;;;;;;15.02;7.35;;;;;;;-148.88;100.00;-17125.47;4992656;28;20046;-85
2023/10/28 04:13:40;;;;;;;15.85;7.20;;;;;;;-148.88;100.00;-17125.47;4993291;28;20113;-86
2023/10/28 04:16:06;;;;;;;15.05;7.47;;;;;;;-148.88;100.00;-17125.47;4994221;28;20026;-85
2023/10/28 04:18:31;;;;;;;15.88;7.35;;;;;;;-148.88;100.00;-17125.47;4994601;28;20030;-85
2023/10/28 04:20:57;;;;;;;13.80;7.20;;;;;;;-148.88;100.00;-17125.47;5009498;28;20026;-83
2023/10/28 04:23:22;;;;;;;13.43;7.03;;;;;;;-148.88;100.00;-17125.47;4994454;28;20160;-86
2023/10/28 04:25:48;;;;;;;15.43;7.20;;;;;;;-148.88;100.00;-17125.47;4994228;28;20142;-84
2023/10/28 04:28:13;;;;;;;18.10;8.02;;;;;;;-148.88;100.00;-17125.47;4993297;28;20038;-85
2023/10/28 04:30:39;;;;;;;14.02;7.07;;;;;;;-148.88;100.00;-17125.47;4995161;28;20026;-85
2023/10/28 04:33:05;;;;;;;9.82;7.07;;;;;;;-148.88;100.00;-17125.47;4993737;28;20159;-86
2023/10/28 04:35:30;;;;;;;17.67;7.95;;;;;;;-148.88;100.00;-17125.47;4992811;28;20026;-87
2023/10/28 04:37:56;;;;;;;15.32;7.20;;;;;;;-148.88;100.00;-17125.47;4992813;28;20022;-86
2023/10/28 04:40:21;;;;;;;14.10;7.25;;;;;;;-148.88;100.00;-17125.47;4993810;28;20023;-85
2023/10/28 04:42:47;;;;;;;16.30;7.95;;;;;;;-148.88;100.00;-17125.47;4993109;28;20432;-87
2023/10/28 04:45:13;;;;;;;17.48;8.60;;;;;;;-148.88;100.00;-17125.47;4993746;28;20066;-87
2023/10/28 04:47:39;;;;;;;21.13;9.27;;;;;;;-148.88;100.00;-17125.47;4993142;28;20031;-84
2023/10/28 04:50:05;;;;;;;22.05;8.60;;;;;;;-148.88;100.00;-17125.47;4993987;28;20397;-86
2023/10/28 04:52:31;;;;;;;18.10;8.82;;;;;;;-148.88;100.00;-17125.47;4992951;28;20089;-85
2023/10/28 04:54:58;;;;;;;17.80;8.25;;;;;;;-148.88;100.00;-17125.47;4994529;28;20023;-86
2023/10/28 04:57:24;;;;;;;16.90;7.45;;;;;;;-148.88;100.00;-17125.47;4993357;28;20109;-85
2023/10/28 04:59:49;;;;;;;18.92;7.55;;;;;;;-148.88;100.00;-17125.47;4993979;28;20053;-88
2023/10/28 05:02:15;;;;;;;13.38;7.40;;;;;;;-148.88;100.00;-17125.47;4993288;28;20125;-85
2023/10/28 05:04:41;;;;;;;16.83;8.60;;;;;;;-148.88;100.00;-17125.47;4993448;28;20037;-85
2023/10/28 05:07:06;;;;;;;20.67;10.23;;;;;;;-148.88;100.00;-17125.47;4993547;28;20434;-85
2023/10/28 05:09:32;;;;;;;17.40;8.85;;;;;;;-148.88;100.00;-17125.47;4993397;28;20081;-86
2023/10/28 05:12:00;;;;;;;12.98;4.82;;;;;;;-148.88;100.00;-17125.47;4992526;28;20069;-84
2023/10/28 05:14:25;;;;;;;12.82;8.45;;;;;;;-148.88;100.00;-17125.47;4994455;28;20045;-85
2023/10/28 05:16:55;;;;;;;14.55;7.97;;;;;;;-148.88;100.00;-17125.47;4993294;28;20026;-84
2023/10/28 05:19:22;;;;;;;14.98;8.05;;;;;;;-148.88;100.00;-17125.47;4993810;28;20049;-85
2023/10/28 05:21:47;;;;;;;11.15;6.30;;;;;;;-148.88;100.00;-17125.47;4993786;28;20026;-85
2023/10/28 05:24:13;;;;;;;11.65;7.10;;;;;;;-148.88;100.00;-17125.47;4994932;28;20050;-85
2023/10/28 05:26:38;;;;;;;12.38;6.07;;;;;;;-148.88;100.00;-17125.47;4994686;28;20366;-84
2023/10/28 05:29:04;;;;;;;12.98;6.10;;;;;;;-148.88;100.00;-17125.47;4996116;28;20118;-86
2023/10/28 05:31:29;;;;;;;14.63;9.63;;;;;;;-148.88;100.00;-17125.47;4997757;28;20022;-85
2023/10/28 05:33:55;;;;;;;10.25;6.30;;;;;;;-148.88;100.00;-17125.47;4996271;28;20030;-83
2023/10/28 05:36:23;;;;;;;25.88;16.23;;;;;;;-148.88;100.00;-17125.47;4996634;28;20390;-84
2023/10/28 05:38:48;;;;;;;27.25;18.27;;;;;;;-148.88;100.00;-17125.47;4997693;28;20422;-83
2023/10/28 05:41:14;;;;;;;22.33;14.80;;;;;;;-148.88;100.00;-17125.47;5012722;28;20022;-85
2023/10/28 05:43:39;;;;;;;11.73;7.97;;;;;;;-148.88;100.00;-17125.47;4996164;28;20113;-84
2023/10/28 05:46:04;;;;;;;12.73;6.28;;;;;;;-148.88;100.00;-17125.47;5012831;28;20385;-84
2023/10/28 05:48:32;;;;;;;12.82;6.60;;;;;;;-148.88;100.00;-17125.47;4998054;28;20463;-85
2023/10/28 05:50:57;;;;;;;14.80;6.03;;;;;;;-148.88;100.00;-17125.47;5001274;28;20113;-84
2023/10/28 05:53:23;;;;;;;12.63;6.13;;;;;;;-148.88;100.00;-17125.47;5000444;28;20061;-84
2023/10/28 05:55:49;;;;;;;11.07;5.88;;;;;;;-148.88;100.00;-17125.47;4998746;28;20472;-83
2023/10/28 05:58:15;;;;;;;13.18;8.30;;;;;;;-148.88;100.00;-17125.47;4997898;28;20033;-82
2023/10/28 06:00:41;;;;;;;13.90;7.70;;;;;;;-148.88;100.00;-17125.47;4996534;28;20054;-81
2023/10/28 06:03:08;;;;;;;16.20;6.63;;;;;;;-148.88;100.00;-17125.47;4996995;28;20026;-81
2023/10/28 06:05:34;;;;;;;11.40;6.15;;;;;;;-148.88;100.00;-17125.47;4997007;28;20022;-82
2023/10/28 06:07:59;;;;;;;9.00;6.15;;;;;;;-148.88;100.00;-17125.47;4996693;28;20032;-82
2023/10/28 06:10:25;;;;;;;10.65;5.68;;;;;;;-148.88;100.00;-17125.47;4996886;28;20027;-82
2023/10/28 06:12:51;;;;;;;12.90;5.57;;;;;;;-148.88;100.00;-17125.47;4995911;28;20511;-82
2023/10/28 06:15:16;;;;;;;14.88;6.30;;;;;;;-148.88;100.00;-17125.47;4996440;28;20025;-85
2023/10/28 06:17:42;;;;;;;10.52;5.88;;;;;;;-148.88;100.00;-17125.47;5016222;28;20018;-84
2023/10/28 06:20:08;;;;;;;10.77;5.30;;;;;;;-148.88;100.00;-17125.47;5014988;28;20027;-82
2023/10/28 06:22:34;;;;;;;9.32;5.60;;;;;;;-148.88;100.00;-17125.47;4996707;28;20397;-82
2023/10/28 06:25:00;;;;;;;11.50;2.67;;;;;;;-148.88;100.00;-17125.47;4995913;28;20544;-82
2023/10/28 06:27:25;;;;;;;12.70;6.00;;;;;;;-148.88;100.00;-17125.47;4995629;28;20026;-82
2023/10/28 06:29:53;;;;;;;11.13;5.70;;;;;;;-148.88;100.00;-17125.47;4995866;28;20496;-82
2023/10/28 06:32:18;;;;;;;13.65;6.60;;;;;;;-148.88;100.00;-17125.47;4996849;28;20027;-81
2023/10/28 06:34:44;;;;;;;12.80;6.07;;;;;;;-148.88;100.00;-17125.47;4996287;28;20022;-82
2023/10/28 06:37:13;;;;;;;12.70;6.25;;;;;;;-148.88;100.00;-17125.47;5012568;28;20030;-82
2023/10/28 06:39:39;;;;;;;11.88;6.03;;;;;;;-148.88;100.00;-17125.47;4996698;28;20029;-82
2023/10/28 06:42:04;;;;;;;10.13;5.50;;;;;;;-148.88;100.00;-17125.47;4997457;28;20026;-85
2023/10/28 06:44:32;;;;;;;9.93;5.50;;;;;;;-148.88;100.00;-17125.47;4999772;28;20030;-82
2023/10/28 06:46:58;;;;;;;10.95;5.43;;;;;;;-148.88;100.00;-17125.47;4995612;28;20378;-82
2023/10/28 06:49:24;;;;;;;10.20;5.10;;;;;;;-148.88;100.00;-17125.47;4997292;28;20057;-81
2023/10/28 06:51:50;;;;;;;12.40;5.30;;;;;;;-148.88;100.00;-17125.47;4996999;28;20030;-82
2023/10/28 06:54:15;;;;;;;9.98;4.85;;;;;;;-148.88;100.00;-17125.47;4995336;28;20117;-81
2023/10/28 06:56:43;;;;;;;10.20;4.97;;;;;;;-148.88;100.00;-17125.47;4995045;28;20102;-81
2023/10/28 06:59:09;;;;;;;9.18;5.55;;;;;;;-148.88;100.00;-17125.47;4996753;28;20511;-82
2023/10/28 07:01:34;;;;;;;12.70;5.78;;;;;;;-148.88;100.00;-17125.47;4996697;28;20030;-82
2023/10/28 07:04:01;;;;;;;9.65;5.20;;;;;;;-148.88;100.00;-17125.47;4995288;28;20144;-82
2023/10/28 07:06:26;;;;;;;11.40;5.43;;;;;;;-148.88;100.00;-17125.47;4995111;28;20053;-83
2023/10/28 07:08:55;;;;;;;12.40;5.20;;;;;;;-148.88;100.00;-17125.47;4995976;28;20121;-83
2023/10/28 07:11:22;;;;;;;9.60;5.97;;;;;;;-148.88;100.00;-17125.47;5000245;28;20027;-86
2023/10/28 07:13:48;;;;;;;12.15;6.60;;;;;;;-148.88;100.00;-17125.47;5000161;28;20029;-83
2023/10/28 07:16:17;;;;;;;10.98;6.18;;;;;;;-148.88;100.00;-17125.47;4999000;28;20400;-85
2023/10/28 07:18:43;;;;;;;10.60;6.53;;;;;;;-148.88;100.00;-17125.47;4995432;28;20030;-82
2023/10/28 07:21:08;;;;;;;11.80;6.40;;;;;;;-148.88;100.00;-17125.47;4994756;28;20026;-81
2023/10/28 07:23:34;;;;;;;9.88;6.13;;;;;;;-148.88;100.00;-17125.47;4994752;28;20026;-83
2023/10/28 07:26:01;;;;;;;8.57;6.18;;;;;;;-148.88;100.00;-17125.47;4996071;28;20080;-82
2023/10/28 07:28:33;;;;;;;10.68;5.60;;;;;;;-148.88;100.00;-17125.47;4994310;28;20116;-83
2023/10/28 07:31:00;;;;;;;14.43;6.07;;;;;;;-148.88;100.00;-17125.47;4994707;28;20034;-83
2023/10/28 07:33:25;;;;;;;10.88;5.97;;;;;;;-148.88;100.00;-17125.47;4995970;28;20038;-82
2023/10/28 07:35:51;;;;;;;11.27;5.72;;;;;;;-148.88;100.00;-17125.47;4994754;28;20014;-83
2023/10/28 07:38:17;;;;;;;9.75;5.57;;;;;;;-148.88;100.00;-17125.47;4998482;28;20088;-84
2023/10/28 07:40:43;;;;;;;10.52;5.78;;;;;;;-148.88;100.00;-17125.47;4997986;28;20377;-85
2023/10/28 07:43:11;;;;;;;9.68;5.80;;;;;;;-148.88;100.00;-17125.47;4998324;28;20030;-83
2023/10/28 07:45:38;;;;;;;14.05;6.70;;;;;;;-148.88;100.00;-17125.47;4995971;28;20033;-83
2023/10/28 07:48:06;;;;;;;10.25;6.70;;;;;;;-148.88;100.00;-17125.47;4994904;28;20038;-81
2023/10/28 07:50:31;;;;;;;11.15;6.60;;;;;;;-148.88;100.00;-17125.47;4995989;28;20034;-81
2023/10/28 07:52:56;;;;;;;9.93;6.88;;;;;;;-148.88;100.00;-17125.47;4995097;28;20033;-81
2023/10/28 07:55:22;;;;;;;7.45;3.78;;;;;;;-148.88;100.00;-17125.47;4994230;28;20015;-83
2023/10/28 07:57:47;;;;;;;13.60;6.43;;;;;;;-148.88;100.00;-17125.47;4994299;28;20019;-81
2023/10/28 08:00:13;;;;;;;11.38;5.55;;;;;;;-148.88;100.00;-17125.47;4993971;28;20022;-82
2023/10/28 08:02:44;;;;;;;9.05;5.75;;;;;;;-148.88;100.00;-17125.47;4994060;28;20041;-83
2023/10/28 08:05:10;;;;;;;12.90;5.95;;;;;;;-148.88;100.00;-17125.47;4998425;28;20022;-85
2023/10/28 08:07:36;;;;;;;11.13;6.75;;;;;;;-148.88;100.00;-17125.47;4997214;28;20489;-82
2023/10/28 08:10:02;;;;;;;12.13;6.25;;;;;;;-148.88;100.00;-17125.47;4997657;28;20037;-82
2023/10/28 08:12:27;;;;;;;11.00;6.22;;;;;;;-148.88;100.00;-17125.47;4995059;28;20022;-82
2023/10/28 08:14:52;;;;;;;9.45;6.38;;;;;;;-148.88;100.00;-17125.47;4993840;28;20026;-83
2023/10/28 08:17:18;;;;;;;9.80;6.93;;;;;;;-148.88;100.00;-17125.47;4994185;28;20440;-83
2023/10/28 08:19:43;;;;;;;10.52;7.05;;;;;;;-148.88;100.00;-17125.47;5010034;28;20027;-83
2023/10/28 08:22:09;;;;;;;14.93;7.47;;;;;;;-148.88;100.00;-17125.47;4994996;28;20029;-85
2023/10/28 08:24:37;;;;;;;13.40;7.70;;;;;;;-148.88;100.00;-17125.47;4993606;28;20034;-83
2023/10/28 08:27:03;;;;;;;14.52;7.80;;;;;;;-148.88;100.00;-17125.47;4994151;28;20022;-82
2023/10/28 08:29:28;;;;;;;12.45;7.43;;;;;;;-148.88;100.00;-17125.47;4995254;28;20022;-81
2023/10/28 08:31:54;;;;;;;12.57;8.52;;;;;;;-148.88;100.00;-17125.47;5015109;28;20046;-84
2023/10/28 08:34:19;;;;;;;9.93;4.93;;;;;;;-148.88;100.00;-17125.47;5013880;28;20030;-84
2023/10/28 08:36:44;;;;;;;11.60;7.90;;;;;;;-148.88;100.00;-17125.47;4996215;28;20444;-84
2023/10/28 08:39:13;;;;;;;12.18;8.15;;;;;;;-148.88;100.00;-17125.47;4995721;28;20023;-84
2023/10/28 08:41:40;;;;;;;15.25;9.07;;;;;;;-148.88;100.00;-17125.47;4994674;28;20481;-82
2023/10/28 08:44:07;;;;;;;12.55;7.95;;;;;;;-148.88;100.00;-17125.47;4993860;28;20045;-85
2023/10/28 08:46:34;;;;;;;17.48;8.80;;;;;;;-148.88;100.00;-17125.47;4994436;28;20033;-85
2023/10/28 08:49:00;;;;;;;15.95;9.05;;;;;;;-148.88;100.00;-17125.47;4993793;28;20034;-84
2023/10/28 08:51:26;;;;;;;13.57;9.10;;;;;;;-148.88;100.00;-17125.47;4993314;28;20022;-84
2023/10/28 08:53:55;;;;;;;12.98;8.23;;;;;;;-148.88;100.00;-17125.47;4993838;28;20026;-83
2023/10/28 08:56:24;;;;;;;10.18;7.80;;;;;;;-148.88;100.00;-17125.47;4993189;28;20034;-85
2023/10/28 08:58:51;;;;;;;13.27;7.80;;;;;;;-148.88;100.00;-17125.47;4994345;28;20022;-84
2023/10/28 09:01:17;;;;;;;15.07;8.50;;;;;;;-148.88;100.00;-17125.47;4993940;28;20031;-83
2023/10/28 09:03:44;;;;;;;12.48;8.02;;;;;;;-148.88;100.00;-17125.47;4995921;28;20034;-84
2023/10/28 09:06:09;;;;;;;11.10;7.70;;;;;;;-148.88;100.00;-17125.47;4997583;28;20033;-84
2023/10/28 09:08:34;;;;;;;17.77;7.80;;;;;;;-148.88;100.00;-17125.47;4998642;28;20031;-83
2023/10/28 09:11:00;;;;;;;11.52;7.85;;;;;;;-148.88;100.00;-17125.47;4998767;28;20401;-84
2023/10/28 09:13:26;;;;;;;11.02;7.15;;;;;;;-148.88;100.00;-17125.47;4998256;28;20033;-83
2023/10/28 09:15:52;;;;;;;11.70;7.20;;;;;;;-148.88;100.00;-17125.47;4997633;28;20027;-84
2023/10/28 09:18:17;;;;;;;12.00;7.80;;;;;;;-148.88;100.00;-17125.47;4998109;28;20092;-83
2023/10/28 09:20:43;;;;;;;10.35;7.65;;;;;;;-148.88;100.00;-17125.47;4998754;28;20026;-85
2023/10/28 09:23:08;;;;;;;10.38;7.07;;;;;;;-148.88;100.00;-17125.47;5014532;28;20026;-84
2023/10/28 09:25:36;;;;;;;10.02;6.90;;;;;;;-148.88;100.00;-17125.47;4998418;28;20124;-85
2023/10/28 09:28:07;;;;;;;7.82;5.57;;;;;;;-148.88;100.00;-17125.47;4997199;28;20026;-84
2023/10/28 09:30:43;;;;;;;6.38;4.00;;;;;;;-148.88;100.00;-17125.47;4997061;28;20080;-85
2023/10/28 09:33:09;;;;;;;6.95;4.05;;;;;;;-148.88;100.00;-17125.47;4997967;28;20440;-84
2023/10/28 09:35:38;;;;;;;6.57;3.35;;;;;;;-148.88;100.00;-17125.47;4996186;28;20018;-84
2023/10/28 09:38:05;;;;;;;4.82;3.00;;;;;;;-148.88;100.00;-17125.47;4996488;28;20027;-84
2023/10/28 09:40:31;;;;;;;6.07;2.70;;;;;;;-148.88;100.00;-17125.47;4996074;28;20408;-84
2023/10/28 09:42:58;;;;;;;5.22;2.45;;;;;;;-148.88;100.00;-17125.47;4995946;28;20026;-84
2023/10/28 09:45:24;;;;;;;4.78;2.50;;;;;;;-148.88;100.00;-17125.47;4996746;28;20029;-84
2023/10/28 09:47:57;;;;;;;5.07;2.30;;;;;;;-148.88;100.00;-17125.47;4996092;28;20026;-85
2023/10/28 09:50:25;;;;;;;3.92;2.20;;;;;;;-148.88;100.00;-17125.47;4996225;28;20467;-85
2023/10/28 09:52:53;;;;;;;2.80;1.83;;;;;;;-148.88;100.00;-17125.47;4997901;28;20121;-86
2023/10/28 09:55:23;;;;;;;3.70;2.15;;;;;;;-148.88;100.00;-17125.47;4998325;28;20018;-85
2023/10/28 09:57:55;;;;;;;3.65;2.05;;;;;;;-148.88;100.00;-17125.47;4997639;28;20077;-84
2023/10/28 10:00:23;;;;;;;4.95;2.53;;;;;;;-148.88;100.00;-17125.47;4996475;28;20028;-84
2023/10/28 10:03:14;;;;;;;3.55;1.88;;;;;;;-148.88;100.00;-17125.47;4995848;28;20026;-84
2023/10/28 10:05:43;;;;;;;3.67;1.98;;;;;;;-148.88;100.00;-17125.47;4995744;28;20396;-85
2023/10/28 10:08:19;;;;;;;6.75;2.22;;;;;;;-148.88;100.00;-17125.47;4997237;28;20524;-82
2023/10/28 10:10:47;;;;;;;5.25;2.33;;;;;;;-148.88;100.00;-17125.47;4997059;28;20500;-86
2023/10/28 10:13:15;;;;;;;4.15;1.83;;;;;;;-148.88;100.00;-17125.47;4995666;28;20030;-87
2023/10/28 10:15:47;;;;;;;3.95;2.13;;;;;;;-148.88;100.00;-17125.47;4994502;28;20018;-88
2023/10/28 10:18:21;;;;;;;3.40;2.05;;;;;;;-148.88;100.00;-17125.47;4998143;28;20022;-86
2023/10/28 10:20:47;;;;;;;4.57;1.88;;;;;;;-148.88;100.00;-17125.47;4998409;28;20469;-86
2023/10/28 10:23:13;;;;;;;4.20;1.95;;;;;;;-148.88;100.00;-17125.47;4998554;28;20477;-87
2023/10/28 10:25:43;;;;;;;4.40;1.90;;;;;;;-148.88;100.00;-17125.47;4998106;28;20101;-88
2023/10/28 10:28:18;;;;;;;4.00;1.90;;;;;;;-148.88;100.00;-17125.47;4997773;28;20022;-86
2023/10/28 10:30:44;;;;;;;3.30;1.42;;;;;;;-148.88;100.00;-17125.47;4995988;28;20038;-86
2023/10/28 10:33:09;;;;;;;5.75;1.90;;;;;;;-148.88;100.00;-17125.47;5013112;28;20022;-84
2023/10/28 10:35:38;;;;;;;3.70;1.92;;;;;;;-148.88;100.00;-17125.47;4997155;28;20472;-87
2023/10/28 10:38:05;;;;;;;3.88;1.50;;;;;;;-148.88;100.00;-17125.47;4995549;28;20548;-86
2023/10/28 10:40:32;;;;;;;2.97;1.80;;;;;;;-148.88;100.00;-17125.47;4997089;28;20436;-85
2023/10/28 10:43:05;;;;;;;2.78;1.75;;;;;;;-148.88;100.00;-17125.47;4995560;28;20072;-85
2023/10/28 10:45:32;;;;;;;4.07;1.80;;;;;;;-148.88;100.00;-17125.47;4997332;28;20401;-86
2023/10/28 10:47:58;;;;;;;6.45;2.17;;;;;;;-148.88;100.00;-17125.47;4996806;28;20093;-86
2023/10/28 10:50:25;;;;;;;4.82;1.60;;;;;;;-148.88;100.00;-17125.47;4995841;28;20026;-87
2023/10/28 10:52:52;;;;;;;5.03;1.58;;;;;;;-148.88;100.00;-17125.47;4995333;28;20396;-85
2023/10/28 10:55:23;;;;;;;5.28;2.00;;;;;;;-148.88;100.00;-17125.47;4996474;28;20026;-85
2023/10/28 10:57:52;;;;;;;5.60;2.38;;;;;;;-148.88;100.00;-17125.47;4995886;28;20030;-85